sensor_id;sensor_type;location;lat;lon;timestamp;pressure;altitude;pressure_sealevel;temperature;humidity
73679;BME280;61978;52.742;16.962;2022-09-09T00:06:32;100154.99;;;16.81;100.00
73679;BME280;61978;52.742;16.962;2022-09-09T00:24:00;100138.35;;;16.89;100.00
73679;BME280;61978;52.742;16.962;2022-09-09T00:50:03;100142.78;;;17.09;100.00
73679;BME280;61978;52.742;16.962;2022-09-09T01:04:33;100152.95;;;17.02;100.00
73679;BME280;61978;52.742;16.962;2022-09-09T01:07:18;100153.56;;;17.04;100.00
73679;BME280;61978;52.742;16.962;2022-09-09T01:18:56;100163.54;;;17.01;100.00
73679;BME280;61978;52.742;16.962;2022-09-09T01:53:38;100179.31;;;17.18;100.00
73679;BME280;61978;52.742;16.962;2022-09-09T02:08:42;100192.94;;;17.37;100.00
73679;BME280;61978;52.742;16.962;2022-09-09T02:14:33;100183.81;;;17.43;100.00
73679;BME280;61978;52.742;16.962;2022-09-09T02:17:10;100172.95;;;17.43;100.00
73679;BME280;61978;52.742;16.962;2022-09-09T02:19:49;100183.25;;;17.41;100.00
73679;BME280;61978;52.742;16.962;2022-09-09T02:22:28;100185.52;;;17.47;100.00
73679;BME280;61978;52.742;16.962;2022-09-09T02:25:08;100186.64;;;17.48;100.00
73679;BME280;61978;52.742;16.962;2022-09-09T02:30:42;100191.54;;;17.49;100.00
73679;BME280;61978;52.742;16.962;2022-09-09T02:33:10;100185.47;;;17.44;100.00
73679;BME280;61978;52.742;16.962;2022-09-09T02:41:52;100205.08;;;17.32;100.00
73679;BME280;61978;52.742;16.962;2022-09-09T02:44:43;100198.73;;;17.27;100.00
73679;BME280;61978;52.742;16.962;2022-09-09T03:15:26;100213.64;;;17.10;100.00
73679;BME280;61978;52.742;16.962;2022-09-09T03:17:56;100222.34;;;17.12;100.00
73679;BME280;61978;52.742;16.962;2022-09-09T03:32:36;100220.36;;;17.21;100.00
73679;BME280;61978;52.742;16.962;2022-09-09T03:38:02;100201.33;;;18.00;100.00
73679;BME280;61978;52.742;16.962;2022-09-09T03:40:55;100209.48;;;18.16;100.00
73679;BME280;61978;52.742;16.962;2022-09-09T03:46:30;100210.23;;;18.31;100.00
73679;BME280;61978;52.742;16.962;2022-09-09T04:04:52;100242.91;;;17.22;100.00
73679;BME280;61978;52.742;16.962;2022-09-09T04:07:54;100248.70;;;17.14;100.00
73679;BME280;61978;52.742;16.962;2022-09-09T04:10:21;100250.54;;;17.11;100.00
73679;BME280;61978;52.742;16.962;2022-09-09T04:18:59;100265.12;;;17.07;100.00
73679;BME280;61978;52.742;16.962;2022-09-09T04:21:27;100274.39;;;17.09;100.00
73679;BME280;61978;52.742;16.962;2022-09-09T04:30:10;100276.48;;;17.04;100.00
73679;BME280;61978;52.742;16.962;2022-09-09T04:32:53;100275.66;;;17.04;100.00
73679;BME280;61978;52.742;16.962;2022-09-09T04:36:00;100290.27;;;17.03;100.00
73679;BME280;61978;52.742;16.962;2022-09-09T05:09:01;100290.59;;;17.18;100.00
73679;BME280;61978;52.742;16.962;2022-09-09T05:17:58;100289.39;;;17.85;100.00
73679;BME280;61978;52.742;16.962;2022-09-09T05:32:24;100301.70;;;17.31;100.00
73679;BME280;61978;52.742;16.962;2022-09-09T05:35:05;100309.10;;;17.35;100.00
73679;BME280;61978;52.742;16.962;2022-09-09T05:49:36;100317.16;;;17.30;100.00
73679;BME280;61978;52.742;16.962;2022-09-09T06:03:51;100304.63;;;17.43;100.00
73679;BME280;61978;52.742;16.962;2022-09-09T06:09:18;100317.70;;;17.58;100.00
73679;BME280;61978;52.742;16.962;2022-09-09T06:12:16;100325.53;;;17.54;100.00
73679;BME280;61978;52.742;16.962;2022-09-09T06:17:58;100326.03;;;17.54;100.00
73679;BME280;61978;52.742;16.962;2022-09-09T06:23:41;100333.00;;;17.75;100.00
73679;BME280;61978;52.742;16.962;2022-09-09T06:26:35;100337.17;;;17.66;100.00
73679;BME280;61978;52.742;16.962;2022-09-09T06:29:12;100337.34;;;17.76;100.00
73679;BME280;61978;52.742;16.962;2022-09-09T06:32:08;100336.66;;;17.84;100.00
73679;BME280;61978;52.742;16.962;2022-09-09T06:34:54;100340.11;;;17.93;100.00
73679;BME280;61978;52.742;16.962;2022-09-09T06:37:53;100337.62;;;17.92;100.00
73679;BME280;61978;52.742;16.962;2022-09-09T06:40:23;100339.80;;;17.92;100.00
73679;BME280;61978;52.742;16.962;2022-09-09T06:43:01;100334.59;;;18.05;100.00
73679;BME280;61978;52.742;16.962;2022-09-09T06:45:42;100339.42;;;18.17;100.00
73679;BME280;61978;52.742;16.962;2022-09-09T06:54:13;100350.86;;;18.19;100.00
73679;BME280;61978;52.742;16.962;2022-09-09T06:57:21;100355.73;;;18.03;100.00
73679;BME280;61978;52.742;16.962;2022-09-09T07:00:05;100370.05;;;17.82;100.00
73679;BME280;61978;52.742;16.962;2022-09-09T07:11:26;100367.25;;;18.24;100.00
73679;BME280;61978;52.742;16.962;2022-09-09T07:17:37;100372.00;;;18.31;100.00
73679;BME280;61978;52.742;16.962;2022-09-09T07:23:11;100381.91;;;18.70;100.00
73679;BME280;61978;52.742;16.962;2022-09-09T07:25:45;100390.05;;;18.37;100.00
73679;BME280;61978;52.742;16.962;2022-09-09T07:28:19;100394.89;;;18.35;100.00
73679;BME280;61978;52.742;16.962;2022-09-09T07:30:59;100390.47;;;18.62;100.00
73679;BME280;61978;52.742;16.962;2022-09-09T07:33:38;100397.50;;;18.58;100.00
73679;BME280;61978;52.742;16.962;2022-09-09T07:36:24;100404.00;;;18.57;100.00
73679;BME280;61978;52.742;16.962;2022-09-09T07:38:53;100404.27;;;18.56;100.00
73679;BME280;61978;52.742;16.962;2022-09-09T07:41:36;100415.95;;;18.11;100.00
73679;BME280;61978;52.742;16.962;2022-09-09T07:44:34;100408.59;;;18.40;100.00
73679;BME280;61978;52.742;16.962;2022-09-09T07:47:09;100402.25;;;18.84;100.00
73679;BME280;61978;52.742;16.962;2022-09-09T07:50:12;100416.77;;;18.57;100.00
73679;BME280;61978;52.742;16.962;2022-09-09T07:53:11;100416.48;;;18.92;100.00
73679;BME280;61978;52.742;16.962;2022-09-09T08:01:43;100429.77;;;19.24;100.00
73679;BME280;61978;52.742;16.962;2022-09-09T08:10:45;100436.84;;;19.25;100.00
73679;BME280;61978;52.742;16.962;2022-09-09T09:18:36;100520.18;;;21.10;100.00
73679;BME280;61978;52.742;16.962;2022-09-09T09:35:59;100532.28;;;21.21;100.00
73679;BME280;61978;52.742;16.962;2022-09-09T09:38:56;100525.66;;;21.54;100.00
73679;BME280;61978;52.742;16.962;2022-09-09T10:08:57;100534.66;;;21.91;100.00
73679;BME280;61978;52.742;16.962;2022-09-09T10:39:49;100520.64;;;22.75;100.00
73679;BME280;61978;52.742;16.962;2022-09-09T10:42:23;100516.01;;;22.88;100.00
73679;BME280;61978;52.742;16.962;2022-09-09T11:19:11;100523.61;;;23.62;100.00
73679;BME280;61978;52.742;16.962;2022-09-09T11:40:41;100493.45;;;24.65;100.00
73679;BME280;61978;52.742;16.962;2022-09-09T11:58:04;100503.92;;;24.19;100.00
73679;BME280;61978;52.742;16.962;2022-09-09T12:05:57;100484.30;;;23.82;100.00
73679;BME280;61978;52.742;16.962;2022-09-09T12:08:28;100487.38;;;23.70;100.00
73679;BME280;61978;52.742;16.962;2022-09-09T12:10:57;100491.55;;;23.60;100.00
73679;BME280;61978;52.742;16.962;2022-09-09T12:13:26;100482.26;;;23.48;100.00
73679;BME280;61978;52.742;16.962;2022-09-09T12:15:57;100475.92;;;23.53;100.00
73679;BME280;61978;52.742;16.962;2022-09-09T12:18:36;100465.45;;;23.72;100.00
73679;BME280;61978;52.742;16.962;2022-09-09T12:21:18;100448.01;;;24.00;100.00
73679;BME280;61978;52.742;16.962;2022-09-09T12:23:58;100454.34;;;23.98;100.00
73679;BME280;61978;52.742;16.962;2022-09-09T12:26:43;100454.89;;;23.97;100.00
73679;BME280;61978;52.742;16.962;2022-09-09T12:32:15;100440.51;;;24.20;100.00
73679;BME280;61978;52.742;16.962;2022-09-09T12:35:02;100438.90;;;24.14;100.00
73679;BME280;61978;52.742;16.962;2022-09-09T12:40:21;100446.13;;;24.42;100.00
73679;BME280;61978;52.742;16.962;2022-09-09T12:42:49;100470.82;;;23.95;100.00
73679;BME280;61978;52.742;16.962;2022-09-09T12:45:25;100437.41;;;24.35;100.00
73679;BME280;61978;52.742;16.962;2022-09-09T12:47:58;100421.03;;;24.90;100.00
73679;BME280;61978;52.742;16.962;2022-09-09T12:50:36;100432.18;;;25.01;100.00
73679;BME280;61978;52.742;16.962;2022-09-09T12:53:02;100432.76;;;24.98;100.00
73679;BME280;61978;52.742;16.962;2022-09-09T12:55:31;100404.70;;;25.53;100.00
73679;BME280;61978;52.742;16.962;2022-09-09T12:58:00;100432.66;;;25.34;100.00
73679;BME280;61978;52.742;16.962;2022-09-09T13:00:37;100420.41;;;25.45;100.00
73679;BME280;61978;52.742;16.962;2022-09-09T13:03:16;100412.44;;;25.49;100.00
73679;BME280;61978;52.742;16.962;2022-09-09T13:05:43;100414.81;;;25.31;100.00
73679;BME280;61978;52.742;16.962;2022-09-09T13:08:11;100389.45;;;25.61;100.00
73679;BME280;61978;52.742;16.962;2022-09-09T13:10:51;100383.48;;;25.75;100.00
73679;BME280;61978;52.742;16.962;2022-09-09T13:13:34;100375.78;;;25.56;100.00
73679;BME280;61978;52.742;16.962;2022-09-09T13:15:57;100373.47;;;25.63;100.00
73679;BME280;61978;52.742;16.962;2022-09-09T13:18:37;100384.11;;;25.51;100.00
73679;BME280;61978;52.742;16.962;2022-09-09T13:21:00;100381.01;;;25.55;100.00
73679;BME280;61978;52.742;16.962;2022-09-09T13:23:30;100407.22;;;25.23;100.00
73679;BME280;61978;52.742;16.962;2022-09-09T13:26:02;100408.42;;;25.15;100.00
73679;BME280;61978;52.742;16.962;2022-09-09T13:28:30;100415.08;;;25.06;100.00
73679;BME280;61978;52.742;16.962;2022-09-09T13:31:05;100390.66;;;25.28;100.00
73679;BME280;61978;52.742;16.962;2022-09-09T13:33:36;100392.30;;;25.29;100.00
73679;BME280;61978;52.742;16.962;2022-09-09T13:36:08;100402.69;;;25.11;100.00
73679;BME280;61978;52.742;16.962;2022-09-09T13:38:38;100397.59;;;25.00;100.00
73679;BME280;61978;52.742;16.962;2022-09-09T13:41:08;100367.78;;;25.09;100.00
73679;BME280;61978;52.742;16.962;2022-09-09T13:43:37;100385.73;;;24.73;100.00
73679;BME280;61978;52.742;16.962;2022-09-09T13:46:24;100348.41;;;24.98;100.00
73679;BME280;61978;52.742;16.962;2022-09-09T13:48:57;100349.40;;;25.07;100.00
73679;BME280;61978;52.742;16.962;2022-09-09T13:51:33;100332.49;;;25.19;100.00
73679;BME280;61978;52.742;16.962;2022-09-09T13:54:01;100340.30;;;25.09;100.00
73679;BME280;61978;52.742;16.962;2022-09-09T13:56:27;100334.70;;;24.96;100.00
73679;BME280;61978;52.742;16.962;2022-09-09T13:58:54;100329.30;;;24.88;100.00
73679;BME280;61978;52.742;16.962;2022-09-09T14:01:21;100326.42;;;24.98;100.00
73679;BME280;61978;52.742;16.962;2022-09-09T14:03:47;100321.52;;;24.95;100.00
73679;BME280;61978;52.742;16.962;2022-09-09T14:06:14;100322.74;;;24.84;100.00
73679;BME280;61978;52.742;16.962;2022-09-09T14:08:41;100315.19;;;24.97;100.00
73679;BME280;61978;52.742;16.962;2022-09-09T14:11:10;100311.00;;;25.02;100.00
73679;BME280;61978;52.742;16.962;2022-09-09T14:13:37;100323.40;;;25.00;100.00
73679;BME280;61978;52.742;16.962;2022-09-09T14:16:04;100323.44;;;24.95;100.00
73679;BME280;61978;52.742;16.962;2022-09-09T14:18:31;100316.66;;;24.87;100.00
73679;BME280;61978;52.742;16.962;2022-09-09T14:20:57;100317.83;;;24.81;100.00
73679;BME280;61978;52.742;16.962;2022-09-09T14:23:25;100307.67;;;24.81;100.00
73679;BME280;61978;52.742;16.962;2022-09-09T14:25:51;100295.30;;;25.05;100.00
73679;BME280;61978;52.742;16.962;2022-09-09T14:28:18;100272.84;;;25.19;100.00
73679;BME280;61978;52.742;16.962;2022-09-09T14:30:44;100261.53;;;25.23;100.00
73679;BME280;61978;52.742;16.962;2022-09-09T14:33:12;100241.62;;;25.31;100.00
73679;BME280;61978;52.742;16.962;2022-09-09T14:35:39;100268.41;;;25.02;100.00
73679;BME280;61978;52.742;16.962;2022-09-09T14:38:08;100253.95;;;24.94;100.00
73679;BME280;61978;52.742;16.962;2022-09-09T14:40:37;100228.64;;;25.16;100.00
73679;BME280;61978;52.742;16.962;2022-09-09T14:43:04;100235.28;;;25.12;100.00
73679;BME280;61978;52.742;16.962;2022-09-09T14:45:31;100252.19;;;24.77;100.00
73679;BME280;61978;52.742;16.962;2022-09-09T14:47:58;100227.42;;;24.84;100.00
73679;BME280;61978;52.742;16.962;2022-09-09T14:50:25;100214.27;;;25.03;100.00
73679;BME280;61978;52.742;16.962;2022-09-09T14:52:52;100225.89;;;24.97;100.00
73679;BME280;61978;52.742;16.962;2022-09-09T14:55:18;100244.45;;;24.84;100.00
73679;BME280;61978;52.742;16.962;2022-09-09T14:57:45;100240.61;;;24.82;100.00
73679;BME280;61978;52.742;16.962;2022-09-09T15:00:12;100253.11;;;24.70;100.00
73679;BME280;61978;52.742;16.962;2022-09-09T15:02:39;100247.75;;;24.57;100.00
73679;BME280;61978;52.742;16.962;2022-09-09T15:05:06;100234.09;;;24.76;100.00
73679;BME280;61978;52.742;16.962;2022-09-09T15:07:34;100232.05;;;24.86;100.00
73679;BME280;61978;52.742;16.962;2022-09-09T15:10:00;100249.67;;;24.83;100.00
73679;BME280;61978;52.742;16.962;2022-09-09T15:12:27;100244.91;;;24.65;100.00
73679;BME280;61978;52.742;16.962;2022-09-09T15:14:54;100226.23;;;24.67;100.00
73679;BME280;61978;52.742;16.962;2022-09-09T15:17:20;100229.94;;;24.55;100.00
73679;BME280;61978;52.742;16.962;2022-09-09T15:19:47;100229.38;;;24.31;100.00
73679;BME280;61978;52.742;16.962;2022-09-09T15:22:15;100199.53;;;24.49;100.00
73679;BME280;61978;52.742;16.962;2022-09-09T15:24:42;100199.47;;;24.54;100.00
73679;BME280;61978;52.742;16.962;2022-09-09T15:27:13;100200.97;;;24.44;100.00
73679;BME280;61978;52.742;16.962;2022-09-09T15:29:42;100187.73;;;24.48;100.00
73679;BME280;61978;52.742;16.962;2022-09-09T15:32:09;100188.86;;;24.45;100.00
73679;BME280;61978;52.742;16.962;2022-09-09T15:34:35;100185.91;;;24.39;100.00
73679;BME280;61978;52.742;16.962;2022-09-09T15:37:02;100193.42;;;24.30;100.00
73679;BME280;61978;52.742;16.962;2022-09-09T15:39:30;100187.93;;;24.30;100.00
73679;BME280;61978;52.742;16.962;2022-09-09T15:41:56;100180.83;;;24.27;100.00
73679;BME280;61978;52.742;16.962;2022-09-09T15:44:23;100186.34;;;24.24;100.00
73679;BME280;61978;52.742;16.962;2022-09-09T15:46:52;100175.09;;;24.23;100.00
73679;BME280;61978;52.742;16.962;2022-09-09T15:49:24;100177.84;;;24.23;100.00
73679;BME280;61978;52.742;16.962;2022-09-09T15:51:56;100186.78;;;24.10;100.00
73679;BME280;61978;52.742;16.962;2022-09-09T15:54:25;100187.66;;;24.01;100.00
73679;BME280;61978;52.742;16.962;2022-09-09T15:56:57;100178.58;;;24.03;100.00
73679;BME280;61978;52.742;16.962;2022-09-09T15:59:25;100175.45;;;23.86;100.00
73679;BME280;61978;52.742;16.962;2022-09-09T16:01:52;100168.05;;;23.86;100.00
73679;BME280;61978;52.742;16.962;2022-09-09T16:04:19;100179.32;;;23.82;100.00
73679;BME280;61978;52.742;16.962;2022-09-09T16:06:54;100181.02;;;23.78;100.00
73679;BME280;61978;52.742;16.962;2022-09-09T16:09:20;100194.06;;;23.60;100.00
73679;BME280;61978;52.742;16.962;2022-09-09T16:11:48;100194.92;;;23.53;100.00
73679;BME280;61978;52.742;16.962;2022-09-09T16:14:14;100192.28;;;23.43;100.00
73679;BME280;61978;52.742;16.962;2022-09-09T16:16:42;100195.29;;;23.41;100.00
73679;BME280;61978;52.742;16.962;2022-09-09T16:19:10;100204.41;;;23.27;100.00
73679;BME280;61978;52.742;16.962;2022-09-09T16:21:49;100199.45;;;23.29;100.00
73679;BME280;61978;52.742;16.962;2022-09-09T16:24:18;100196.46;;;23.28;100.00
73679;BME280;61978;52.742;16.962;2022-09-09T16:26:47;100205.81;;;23.21;100.00
73679;BME280;61978;52.742;16.962;2022-09-09T16:29:16;100206.13;;;23.15;100.00
73679;BME280;61978;52.742;16.962;2022-09-09T16:31:44;100204.72;;;23.20;100.00
73679;BME280;61978;52.742;16.962;2022-09-09T16:34:11;100209.09;;;23.21;100.00
73679;BME280;61978;52.742;16.962;2022-09-09T16:36:39;100216.25;;;23.14;100.00
73679;BME280;61978;52.742;16.962;2022-09-09T16:39:11;100222.83;;;23.13;100.00
73679;BME280;61978;52.742;16.962;2022-09-09T16:41:39;100226.13;;;23.15;100.00
73679;BME280;61978;52.742;16.962;2022-09-09T16:44:08;100232.95;;;23.18;100.00
73679;BME280;61978;52.742;16.962;2022-09-09T16:46:41;100235.96;;;23.16;100.00
73679;BME280;61978;52.742;16.962;2022-09-09T16:49:09;100247.80;;;23.09;100.00
73679;BME280;61978;52.742;16.962;2022-09-09T16:51:42;100249.17;;;23.04;100.00
73679;BME280;61978;52.742;16.962;2022-09-09T16:54:09;100259.09;;;22.93;100.00
73679;BME280;61978;52.742;16.962;2022-09-09T16:56:38;100278.33;;;22.80;100.00
73679;BME280;61978;52.742;16.962;2022-09-09T16:59:10;100262.17;;;22.76;100.00
73679;BME280;61978;52.742;16.962;2022-09-09T17:01:39;100271.22;;;22.69;100.00
73679;BME280;61978;52.742;16.962;2022-09-09T17:04:08;100282.73;;;22.51;100.00
73679;BME280;61978;52.742;16.962;2022-09-09T17:06:37;100292.89;;;22.38;100.00
73679;BME280;61978;52.742;16.962;2022-09-09T17:09:08;100304.41;;;22.14;100.00
73679;BME280;61978;52.742;16.962;2022-09-09T17:11:35;100310.95;;;21.98;100.00
73679;BME280;61978;52.742;16.962;2022-09-09T17:14:03;100317.48;;;21.87;100.00
73679;BME280;61978;52.742;16.962;2022-09-09T17:16:30;100331.13;;;21.72;100.00
73679;BME280;61978;52.742;16.962;2022-09-09T17:18:58;100343.67;;;21.58;100.00
73679;BME280;61978;52.742;16.962;2022-09-09T17:21:27;100346.91;;;21.42;100.00
73679;BME280;61978;52.742;16.962;2022-09-09T17:26:34;100369.23;;;21.27;100.00
73679;BME280;61978;52.742;16.962;2022-09-09T17:29:04;100380.14;;;21.22;100.00
73679;BME280;61978;52.742;16.962;2022-09-09T17:31:35;100398.12;;;21.13;100.00
73679;BME280;61978;52.742;16.962;2022-09-09T17:34:02;100404.06;;;21.04;100.00
73679;BME280;61978;52.742;16.962;2022-09-09T17:36:32;100419.02;;;20.97;100.00
73679;BME280;61978;52.742;16.962;2022-09-09T17:38:59;100425.54;;;20.93;100.00
73679;BME280;61978;52.742;16.962;2022-09-09T17:41:28;100434.22;;;20.83;100.00
73679;BME280;61978;52.742;16.962;2022-09-09T17:43:55;100442.31;;;20.73;100.00
73679;BME280;61978;52.742;16.962;2022-09-09T17:46:25;100455.34;;;20.61;100.00
73679;BME280;61978;52.742;16.962;2022-09-09T17:48:58;100468.35;;;20.51;100.00
73679;BME280;61978;52.742;16.962;2022-09-09T17:51:26;100485.42;;;20.39;100.00
73679;BME280;61978;52.742;16.962;2022-09-09T17:54:01;100495.25;;;20.16;100.00
73679;BME280;61978;52.742;16.962;2022-09-09T17:56:30;100494.31;;;20.08;100.00
73679;BME280;61978;52.742;16.962;2022-09-09T17:58:58;100517.66;;;19.98;100.00
73679;BME280;61978;52.742;16.962;2022-09-09T18:01:28;100526.84;;;19.92;100.00
73679;BME280;61978;52.742;16.962;2022-09-09T18:03:58;100537.08;;;19.80;100.00
73679;BME280;61978;52.742;16.962;2022-09-09T18:06:32;100546.67;;;19.66;100.00
73679;BME280;61978;52.742;16.962;2022-09-09T18:08:59;100558.08;;;19.63;100.00
73679;BME280;61978;52.742;16.962;2022-09-09T18:11:30;100564.59;;;19.60;100.00
73679;BME280;61978;52.742;16.962;2022-09-09T18:13:59;100568.55;;;19.52;100.00
73679;BME280;61978;52.742;16.962;2022-09-09T18:16:28;100576.75;;;19.38;100.00
73679;BME280;61978;52.742;16.962;2022-09-09T18:18:57;100570.38;;;19.30;100.00
73679;BME280;61978;52.742;16.962;2022-09-09T18:21:25;100581.80;;;19.29;100.00
73679;BME280;61978;52.742;16.962;2022-09-09T18:23:53;100581.47;;;19.26;100.00
73679;BME280;61978;52.742;16.962;2022-09-09T18:26:24;100582.16;;;19.19;100.00
73679;BME280;61978;52.742;16.962;2022-09-09T18:28:55;100586.66;;;19.11;100.00
73679;BME280;61978;52.742;16.962;2022-09-09T18:31:23;100584.92;;;19.05;100.00
73679;BME280;61978;52.742;16.962;2022-09-09T18:33:51;100586.92;;;18.95;100.00
73679;BME280;61978;52.742;16.962;2022-09-09T18:36:27;100592.41;;;18.81;100.00
73679;BME280;61978;52.742;16.962;2022-09-09T18:38:56;100589.83;;;18.74;100.00
73679;BME280;61978;52.742;16.962;2022-09-09T18:41:25;100591.46;;;18.59;100.00
73679;BME280;61978;52.742;16.962;2022-09-09T18:43:56;100585.86;;;18.51;100.00
73679;BME280;61978;52.742;16.962;2022-09-09T18:46:24;100591.26;;;18.49;100.00
73679;BME280;61978;52.742;16.962;2022-09-09T18:48:54;100586.73;;;18.54;100.00
73679;BME280;61978;52.742;16.962;2022-09-09T18:51:23;100587.30;;;18.56;100.00
73679;BME280;61978;52.742;16.962;2022-09-09T18:53:53;100592.66;;;18.51;100.00
73679;BME280;61978;52.742;16.962;2022-09-09T18:56:21;100591.56;;;18.50;100.00
73679;BME280;61978;52.742;16.962;2022-09-09T18:59:00;100592.81;;;18.47;100.00
73679;BME280;61978;52.742;16.962;2022-09-09T19:01:24;100593.59;;;18.45;100.00
73679;BME280;61978;52.742;16.962;2022-09-09T19:03:53;100596.23;;;18.40;100.00
73679;BME280;61978;52.742;16.962;2022-09-09T19:06:28;100594.95;;;18.31;100.00
73679;BME280;61978;52.742;16.962;2022-09-09T19:08:51;100601.27;;;18.20;100.00
73679;BME280;61978;52.742;16.962;2022-09-09T19:11:19;100603.36;;;18.04;100.00
73679;BME280;61978;52.742;16.962;2022-09-09T19:13:59;100614.78;;;17.92;100.00
73679;BME280;61978;52.742;16.962;2022-09-09T19:16:29;100605.44;;;17.88;100.00
73679;BME280;61978;52.742;16.962;2022-09-09T19:18:57;100595.92;;;17.88;100.00
73679;BME280;61978;52.742;16.962;2022-09-09T19:21:28;100610.55;;;17.84;100.00
73679;BME280;61978;52.742;16.962;2022-09-09T19:24:01;100607.47;;;17.81;100.00
73679;BME280;61978;52.742;16.962;2022-09-09T19:26:31;100599.22;;;17.75;100.00
73679;BME280;61978;52.742;16.962;2022-09-09T19:29:00;100596.25;;;17.77;100.00
73679;BME280;61978;52.742;16.962;2022-09-09T19:31:31;100587.88;;;17.79;100.00
73679;BME280;61978;52.742;16.962;2022-09-09T19:33:58;100580.30;;;17.81;100.00
73679;BME280;61978;52.742;16.962;2022-09-09T19:36:25;100582.24;;;17.83;100.00
73679;BME280;61978;52.742;16.962;2022-09-09T19:38:54;100591.17;;;17.81;100.00
73679;BME280;61978;52.742;16.962;2022-09-09T19:41:23;100591.75;;;17.83;100.00
73679;BME280;61978;52.742;16.962;2022-09-09T19:43:54;100588.77;;;17.82;100.00
73679;BME280;61978;52.742;16.962;2022-09-09T19:46:20;100588.45;;;17.81;100.00
73679;BME280;61978;52.742;16.962;2022-09-09T19:48:47;100592.70;;;17.76;100.00
73679;BME280;61978;52.742;16.962;2022-09-09T19:51:17;100580.68;;;17.72;100.00
73679;BME280;61978;52.742;16.962;2022-09-09T19:53:47;100581.95;;;17.70;100.00
73679;BME280;61978;52.742;16.962;2022-09-09T19:56:19;100576.20;;;17.66;100.00
73679;BME280;61978;52.742;16.962;2022-09-09T19:58:48;100578.30;;;17.64;100.00
73679;BME280;61978;52.742;16.962;2022-09-09T20:01:20;100575.78;;;17.60;100.00
73679;BME280;61978;52.742;16.962;2022-09-09T20:03:48;100577.89;;;17.58;100.00
73679;BME280;61978;52.742;16.962;2022-09-09T20:06:18;100572.58;;;17.52;100.00
73679;BME280;61978;52.742;16.962;2022-09-09T20:08:46;100575.09;;;17.44;100.00
73679;BME280;61978;52.742;16.962;2022-09-09T20:11:14;100573.22;;;17.33;100.00
73679;BME280;61978;52.742;16.962;2022-09-09T20:13:42;100573.73;;;17.21;100.00
73679;BME280;61978;52.742;16.962;2022-09-09T20:16:13;100573.73;;;17.21;100.00
73679;BME280;61978;52.742;16.962;2022-09-09T20:18:49;100575.87;;;17.19;100.00
73679;BME280;61978;52.742;16.962;2022-09-09T20:21:20;100573.38;;;17.17;100.00
73679;BME280;61978;52.742;16.962;2022-09-09T20:23:48;100577.08;;;17.14;100.00
73679;BME280;61978;52.742;16.962;2022-09-09T20:26:19;100570.55;;;17.12;100.00
73679;BME280;61978;52.742;16.962;2022-09-09T20:28:48;100568.05;;;17.11;100.00
73679;BME280;61978;52.742;16.962;2022-09-09T20:31:17;100561.27;;;17.11;100.00
73679;BME280;61978;52.742;16.962;2022-09-09T20:33:46;100555.25;;;17.09;100.00
73679;BME280;61978;52.742;16.962;2022-09-09T20:36:19;100554.83;;;17.03;100.00
73679;BME280;61978;52.742;16.962;2022-09-09T20:38:50;100548.67;;;16.96;100.00
73679;BME280;61978;52.742;16.962;2022-09-09T20:41:19;100547.05;;;16.95;100.00
73679;BME280;61978;52.742;16.962;2022-09-09T20:43:50;100538.59;;;16.94;100.00
73679;BME280;61978;52.742;16.962;2022-09-09T20:46:25;100541.00;;;16.93;100.00
73679;BME280;61978;52.742;16.962;2022-09-09T20:48:54;100538.02;;;16.92;100.00
73679;BME280;61978;52.742;16.962;2022-09-09T20:51:22;100536.35;;;16.91;100.00
73679;BME280;61978;52.742;16.962;2022-09-09T20:54:09;100536.94;;;16.93;100.00
73679;BME280;61978;52.742;16.962;2022-09-09T20:56:36;100530.34;;;16.89;100.00
73679;BME280;61978;52.742;16.962;2022-09-09T20:59:07;100530.91;;;16.79;100.00
73679;BME280;61978;52.742;16.962;2022-09-09T21:01:39;100522.88;;;16.73;100.00
73679;BME280;61978;52.742;16.962;2022-09-09T21:04:06;100524.11;;;16.68;100.00
73679;BME280;61978;52.742;16.962;2022-09-09T21:06:35;100520.81;;;16.65;100.00
73679;BME280;61978;52.742;16.962;2022-09-09T21:09:02;100523.83;;;16.57;100.00
73679;BME280;61978;52.742;16.962;2022-09-09T21:11:29;100516.90;;;16.52;100.00
73679;BME280;61978;52.742;16.962;2022-09-09T21:13:59;100513.30;;;16.58;100.00
73679;BME280;61978;52.742;16.962;2022-09-09T21:16:26;100514.95;;;16.59;100.00
73679;BME280;61978;52.742;16.962;2022-09-09T21:18:53;100517.20;;;16.62;100.00
73679;BME280;61978;52.742;16.962;2022-09-09T21:21:20;100514.30;;;16.66;100.00
73679;BME280;61978;52.742;16.962;2022-09-09T21:23:47;100507.06;;;16.70;100.00
73679;BME280;61978;52.742;16.962;2022-09-09T21:26:14;100506.07;;;16.73;100.00
73679;BME280;61978;52.742;16.962;2022-09-09T21:28:40;100507.95;;;16.73;100.00
73679;BME280;61978;52.742;16.962;2022-09-09T21:31:12;100505.18;;;16.70;100.00
73679;BME280;61978;52.742;16.962;2022-09-09T21:33:37;100500.00;;;16.69;100.00
73679;BME280;61978;52.742;16.962;2022-09-09T21:36:05;100506.02;;;16.71;100.00
73679;BME280;61978;52.742;16.962;2022-09-09T21:38:33;100507.06;;;16.70;100.00
73679;BME280;61978;52.742;16.962;2022-09-09T21:41:03;100502.53;;;16.73;100.00
73679;BME280;61978;52.742;16.962;2022-09-09T21:43:31;100505.55;;;16.74;100.00